Stornoway — WDC7908 — position and weather

sailwx.info

Track history (hours):
 
Tides and Currents Weather Stations Pressure Air Temp Water Temp Dewpoint Dewpoint Depression Visibility Wind Speed Wind Dir Waves Ship Positions

Stornoway

Owner: Matthews, William R, Bainbridge Island, WA. More information available from US FCC via Universal Licensing System and Coast Guard Vessel Documentation Center.

Last reported at 2016-Sep-21 23:31 UTC. Time now 2016-Sep-29 20:29 UTC.
Position N 47°43' W 122°32'.

Length 13 m.

Type: Pleasure craft. MMSI: 367078810.

Date/timePositionNaut miles runAvg speedWind from/ knotsBaromVisibWave heightAir tempDewpointWater temp
2016-Sep-21 23:31N 47°43' W 122°32'8 8.8
2016-Sep-21 22:33N 47°50' W 122°26'12 3.9
2016-Sep-21 19:33N 47°59' W 122°15'44 1.7
2016-Sep-20 17:33N 48°32' W 122°58'2 0.5
2016-Sep-20 14:28N 48°32' W 123°01'0 0.0
2016-Sep-20 13:31N 48°32' W 123°01'0 0.0
2016-Sep-20 10:31N 48°32' W 123°01'0 0.0
2016-Sep-20 08:31N 48°32' W 123°01'0 0.0
2016-Sep-20 07:31N 48°32' W 123°01'0 0.0
2016-Sep-20 06:31N 48°32' W 123°01'0 0.0
2016-Sep-20 02:25N 48°32' W 123°01'0 0.0
2016-Sep-19 23:31N 48°32' W 123°01'0 0.0
2016-Sep-19 19:31N 48°32' W 123°01'0 0.0
2016-Sep-19 18:31N 48°32' W 123°01'0 0.0
2016-Sep-19 16:28N 48°32' W 123°01'0 0.0
2016-Sep-19 14:28N 48°32' W 123°01'0 0.0
2016-Sep-19 13:31N 48°32' W 123°01'0 0.0
2016-Sep-19 12:31N 48°32' W 123°01'0 0.0
2016-Sep-19 11:31N 48°32' W 123°01'0 0.0
2016-Sep-19 09:32N 48°32' W 123°01'0 0.0
2016-Sep-19 07:31N 48°32' W 123°01'0 0.0
2016-Sep-19 06:28N 48°32' W 123°01'0 0.0
2016-Sep-19 03:22N 48°32' W 123°01'0 0.0
2016-Sep-19 02:31N 48°32' W 123°01'0 0.0
2016-Sep-19 00:31N 48°32' W 123°01'0 0.0
2016-Sep-18 19:31N 48°32' W 123°01'6 0.7
2016-Sep-18 10:10N 48°35' W 123°09'0 0.0
2016-Sep-18 02:10N 48°35' W 123°09'0 0.0
2016-Sep-17 20:25N 48°35' W 123°09'0 0.0
2016-Sep-17 18:52N 48°35' W 123°09'0 0.0
2016-Sep-17 07:22N 48°35' W 123°09'0 0.0
2016-Sep-17 00:28N 48°35' W 123°09'14 0.6
2016-Sep-16 00:28N 48°46' W 122°55'0 0.0
2016-Sep-15 22:11N 48°46' W 122°55'0 0.0
2016-Sep-15 21:08N 48°46' W 122°55'0 0.0
2016-Sep-15 18:22N 48°46' W 122°55'1 0.0
2016-Sep-15 04:22N 48°45' W 122°55'8 0.5
2016-Sep-14 13:25N 48°38' W 122°58'0 0.0
2016-Sep-14 12:29N 48°38' W 122°58'0 0.0
2016-Sep-14 10:28N 48°38' W 122°58'0 0.0
2016-Sep-14 09:28N 48°38' W 122°58'0 0.0
2016-Sep-13 22:17N 48°38' W 122°58'7 0.2
2016-Sep-12 14:04N 48°32' W 122°51'0 0.0
2016-Sep-12 10:31N 48°32' W 122°51'  
Track history (hours):
 
Tides and Currents Weather Stations Pressure Air Temp Water Temp Dewpoint Dewpoint Depression Visibility Wind Speed Wind Dir Waves Ship Positions

Stornoway

Owner: Matthews, William R, Bainbridge Island, WA. More information available from US FCC via Universal Licensing System and Coast Guard Vessel Documentation Center.

Last reported at 2016-Sep-21 23:31 UTC. Time now 2016-Sep-29 20:29 UTC.
Position N 47°43' W 122°32'.

Length 13 m.

Type: Pleasure craft. MMSI: 367078810.

Date/timePositionNaut miles runAvg speedWind from/ knotsBaromVisibWave heightAir tempDewpointWater temp
2016-Sep-21 23:31N 47°43' W 122°32'8 8.8
2016-Sep-21 22:33N 47°50' W 122°26'12 3.9
2016-Sep-21 19:33N 47°59' W 122°15'44 1.7
2016-Sep-20 17:33N 48°32' W 122°58'2 0.5
2016-Sep-20 14:28N 48°32' W 123°01'0 0.0
2016-Sep-20 13:31N 48°32' W 123°01'0 0.0
2016-Sep-20 10:31N 48°32' W 123°01'0 0.0
2016-Sep-20 08:31N 48°32' W 123°01'0 0.0
2016-Sep-20 07:31N 48°32' W 123°01'0 0.0
2016-Sep-20 06:31N 48°32' W 123°01'0 0.0
2016-Sep-20 02:25N 48°32' W 123°01'0 0.0
2016-Sep-19 23:31N 48°32' W 123°01'0 0.0
2016-Sep-19 19:31N 48°32' W 123°01'0 0.0
2016-Sep-19 18:31N 48°32' W 123°01'0 0.0
2016-Sep-19 16:28N 48°32' W 123°01'0 0.0
2016-Sep-19 14:28N 48°32' W 123°01'0 0.0
2016-Sep-19 13:31N 48°32' W 123°01'0 0.0
2016-Sep-19 12:31N 48°32' W 123°01'0 0.0
2016-Sep-19 11:31N 48°32' W 123°01'0 0.0
2016-Sep-19 09:32N 48°32' W 123°01'0 0.0
2016-Sep-19 07:31N 48°32' W 123°01'0 0.0
2016-Sep-19 06:28N 48°32' W 123°01'0 0.0
2016-Sep-19 03:22N 48°32' W 123°01'0 0.0
2016-Sep-19 02:31N 48°32' W 123°01'0 0.0
2016-Sep-19 00:31N 48°32' W 123°01'0 0.0
2016-Sep-18 19:31N 48°32' W 123°01'6 0.7
2016-Sep-18 10:10N 48°35' W 123°09'0 0.0
2016-Sep-18 02:10N 48°35' W 123°09'0 0.0
2016-Sep-17 20:25N 48°35' W 123°09'0 0.0
2016-Sep-17 18:52N 48°35' W 123°09'0 0.0
2016-Sep-17 07:22N 48°35' W 123°09'0 0.0
2016-Sep-17 00:28N 48°35' W 123°09'14 0.6
2016-Sep-16 00:28N 48°46' W 122°55'0 0.0
2016-Sep-15 22:11N 48°46' W 122°55'0 0.0
2016-Sep-15 21:08N 48°46' W 122°55'0 0.0
2016-Sep-15 18:22N 48°46' W 122°55'1 0.0
2016-Sep-15 04:22N 48°45' W 122°55'8 0.5
2016-Sep-14 13:25N 48°38' W 122°58'0 0.0
2016-Sep-14 12:29N 48°38' W 122°58'0 0.0
2016-Sep-14 10:28N 48°38' W 122°58'0 0.0
2016-Sep-14 09:28N 48°38' W 122°58'0 0.0
2016-Sep-13 22:17N 48°38' W 122°58'7 0.2
2016-Sep-12 14:04N 48°32' W 122°51'0 0.0
2016-Sep-12 10:31N 48°32' W 122°51'  

Dump ship's entire track history